Time;durP1;ratioP1;P1;durP2;ratioP2;P2;SDS_P1;SDS_P2;PMS_P1;PMS_P2;Temp;Humidity;BMP_temperature;BMP_pressure;BME280_temperature;BME280_humidity;BME280_pressure;Samples;Min_cycle;Max_cycle;Signal;HPM_P1;HPM_P2
2023/03/05 00:00:49;;;;;;;20.85;11.10;;;;;;;5.38;81.53;102166.41;5073308;28;20094;-40
2023/03/05 00:03:15;;;;;;;23.05;10.80;;;;;;;5.44;81.71;102161.84;5073266;28;20029;-39
2023/03/05 00:05:40;;;;;;;20.02;10.95;;;;;;;5.44;81.11;102159.94;5072991;28;20044;-39
2023/03/05 00:08:05;;;;;;;24.63;12.30;;;;;;;5.42;81.27;102158.53;5073328;28;20032;-39
2023/03/05 00:10:31;;;;;;;19.98;10.68;;;;;;;5.43;81.15;102158.28;5073418;28;20103;-39
2023/03/05 00:12:56;;;;;;;23.65;10.85;;;;;;;5.45;80.57;102158.03;5073194;28;20388;-39
2023/03/05 00:15:21;;;;;;;19.15;10.50;;;;;;;5.49;80.67;102155.63;5073139;28;20035;-39
2023/03/05 00:17:47;;;;;;;19.63;10.40;;;;;;;5.55;80.05;102162.94;5073074;28;20115;-39
2023/03/05 00:20:12;;;;;;;20.83;10.50;;;;;;;5.54;79.60;102158.50;5072977;28;20040;-39
2023/03/05 00:22:37;;;;;;;19.38;10.75;;;;;;;5.51;79.29;102148.84;5072984;28;20036;-38
2023/03/05 00:25:04;;;;;;;19.52;10.43;;;;;;;5.47;80.27;102147.66;5072945;28;20044;-39
2023/03/05 00:27:29;;;;;;;21.38;10.63;;;;;;;5.45;80.16;102147.03;5073018;28;20074;-39
2023/03/05 00:29:55;;;;;;;20.75;10.73;;;;;;;5.44;80.58;102143.47;5068662;28;20531;-39
2023/03/05 00:32:20;;;;;;;18.77;10.88;;;;;;;5.47;79.64;102140.28;5072860;28;20086;-39
2023/03/05 00:34:45;;;;;;;20.23;10.68;;;;;;;5.47;80.06;102140.28;5071921;28;20028;-39
2023/03/05 00:37:11;;;;;;;22.60;11.93;;;;;;;5.50;80.41;102135.34;5072918;28;20032;-39
2023/03/05 00:39:36;;;;;;;19.10;10.50;;;;;;;5.54;79.82;102142.03;5072513;28;20023;-39
2023/03/05 00:42:01;;;;;;;20.35;10.80;;;;;;;5.47;79.51;102144.91;5072756;28;20029;-39
2023/03/05 00:44:27;;;;;;;21.52;10.80;;;;;;;5.43;80.28;102140.97;5072592;28;20024;-38
2023/03/05 00:46:52;;;;;;;20.13;11.10;;;;;;;5.44;80.84;102135.25;5072503;28;20032;-39
2023/03/05 00:49:17;;;;;;;21.02;11.23;;;;;;;5.45;80.77;102127.84;5072709;28;20047;-38
2023/03/05 00:51:43;;;;;;;19.67;10.82;;;;;;;5.47;80.17;102131.19;5072484;28;20034;-38
2023/03/05 00:54:08;;;;;;;20.80;11.20;;;;;;;5.49;80.64;102126.28;5072501;28;20071;-39
2023/03/05 00:56:33;;;;;;;20.80;11.02;;;;;;;5.45;79.18;102122.34;5072526;28;20083;-38
2023/03/05 00:58:58;;;;;;;19.42;10.90;;;;;;;5.50;80.15;102119.72;5072561;28;20028;-39
2023/03/05 01:01:24;;;;;;;20.35;10.80;;;;;;;5.49;79.98;102107.06;5072467;28;20068;-38
2023/03/05 01:03:50;;;;;;;20.80;10.90;;;;;;;5.47;79.22;102115.56;5072384;28;20032;-38
2023/03/05 01:06:16;;;;;;;19.88;11.20;;;;;;;5.41;79.68;102118.44;5072499;28;20032;-39
2023/03/05 01:08:42;;;;;;;18.83;10.95;;;;;;;5.36;79.82;102107.31;5072160;28;20036;-40
2023/03/05 01:11:09;;;;;;;22.33;11.20;;;;;;;5.29;80.17;102108.28;5072246;28;20056;-39
2023/03/05 01:13:35;;;;;;;20.92;11.07;;;;;;;5.22;80.25;102103.97;5072282;28;20029;-44
2023/03/05 01:16:01;;;;;;;18.98;10.77;;;;;;;5.16;80.25;102097.53;5072267;28;20028;-40
2023/03/05 01:18:27;;;;;;;21.13;10.55;;;;;;;5.11;80.54;102094.69;5072249;28;20036;-39
2023/03/05 01:20:52;;;;;;;19.02;10.82;;;;;;;5.14;81.95;102103.28;5072336;28;20039;-39
2023/03/05 01:23:18;;;;;;;19.75;10.73;;;;;;;5.18;80.73;102091.84;5072204;28;20028;-39
2023/03/05 01:25:43;;;;;;;20.90;10.93;;;;;;;5.20;81.37;102087.78;5072124;28;20033;-39
2023/03/05 01:28:09;;;;;;;19.83;10.90;;;;;;;5.20;80.62;102085.03;5068069;28;20032;-39
2023/03/05 01:30:34;;;;;;;20.15;10.48;;;;;;;5.16;80.74;102089.31;5072061;28;20526;-39
2023/03/05 01:33:00;;;;;;;18.77;11.00;;;;;;;5.08;80.91;102082.28;5072119;28;20031;-39
2023/03/05 01:35:26;;;;;;;19.80;10.85;;;;;;;5.12;80.90;102083.47;5072071;28;20086;-39
2023/03/05 01:37:52;;;;;;;18.65;10.77;;;;;;;5.12;81.15;102086.22;5071932;28;20028;-39
2023/03/05 01:40:25;;;;;;;20.35;11.18;;;;;;;5.13;81.62;102076.91;5072065;28;20056;-38
2023/03/05 01:42:59;;;;;;;23.33;11.60;;;;;;;5.08;82.10;102070.47;5071962;28;20033;-39
2023/03/05 01:45:25;;;;;;;21.13;10.90;;;;;;;5.02;81.99;102064.03;5074045;28;20099;-39
2023/03/05 01:47:51;;;;;;;19.42;11.10;;;;;;;4.92;82.59;102056.41;5058171;28;20540;-39
2023/03/05 01:50:21;;;;;;;21.15;11.30;;;;;;;4.87;82.49;102044.50;5076099;28;20396;-39
2023/03/05 01:52:52;;;;;;;21.65;11.45;;;;;;;4.82;83.14;102056.16;5076122;28;20024;-38
2023/03/05 01:55:21;;;;;;;22.15;11.93;;;;;;;4.79;83.60;102043.78;5075844;28;20056;-39
2023/03/05 01:58:09;;;;;;;21.15;11.32;;;;;;;4.84;83.53;102051.28;5075988;28;20024;-39
2023/03/05 02:00:40;;;;;;;18.50;11.23;;;;;;;4.74;84.53;102038.16;5075520;28;20055;-40
2023/03/05 02:03:08;;;;;;;21.63;12.13;;;;;;;4.73;84.65;102036.47;5075953;28;20032;-39
2023/03/05 02:05:36;;;;;;;21.85;11.30;;;;;;;4.68;84.45;102031.72;5067666;28;20067;-39
2023/03/05 02:08:05;;;;;;;22.02;11.38;;;;;;;4.74;85.06;102035.41;5055661;28;20473;-38
2023/03/05 02:10:34;;;;;;;22.15;11.38;;;;;;;4.67;84.92;102010.03;5055410;28;20021;-39
2023/03/05 02:13:03;;;;;;;23.55;11.80;;;;;;;4.53;84.70;101987.50;5055584;28;20036;-39
2023/03/05 02:15:28;;;;;;;19.00;10.93;;;;;;;4.75;84.10;102019.81;5037580;28;20040;-39
2023/03/05 02:17:54;;;;;;;20.02;11.13;;;;;;;4.63;84.52;102001.44;5055464;28;20033;-39
2023/03/05 02:20:23;;;;;;;21.35;11.32;;;;;;;4.77;84.99;102018.50;5055327;28;20373;-39
2023/03/05 02:22:49;;;;;;;19.92;11.10;;;;;;;4.80;84.72;102025.41;5055366;28;20488;-39
2023/03/05 02:25:19;;;;;;;22.20;11.80;;;;;;;4.76;84.66;102013.25;5051222;28;20029;-39
2023/03/05 02:27:57;;;;;;;20.88;11.20;;;;;;;4.73;84.68;102000.03;5055308;28;20044;-39
2023/03/05 02:30:23;;;;;;;18.67;10.88;;;;;;;4.73;84.95;102002.75;5055315;28;20048;-39
2023/03/05 02:32:48;;;;;;;19.67;10.90;;;;;;;4.77;85.24;102002.03;5055164;28;20033;-38
2023/03/05 02:35:14;;;;;;;20.10;10.90;;;;;;;4.82;84.62;101993.09;5055042;28;20044;-39
2023/03/05 02:37:39;;;;;;;18.13;10.93;;;;;;;4.82;84.15;101993.94;5055204;28;20025;-39
2023/03/05 02:40:05;;;;;;;19.80;11.13;;;;;;;4.77;84.40;101995.75;5055280;28;20036;-38
2023/03/05 02:42:32;;;;;;;21.58;11.00;;;;;;;4.71;84.50;101980.22;5054674;28;20025;-39
2023/03/05 02:44:59;;;;;;;19.40;10.45;;;;;;;4.69;84.41;101975.00;5055000;28;20384;-39
2023/03/05 02:47:25;;;;;;;19.58;11.05;;;;;;;4.66;84.55;101978.19;5054873;28;20381;-38
2023/03/05 02:49:50;;;;;;;20.13;10.70;;;;;;;4.64;85.14;101974.84;5055032;28;20037;-39
2023/03/05 02:52:16;;;;;;;23.30;11.40;;;;;;;4.59;85.18;101967.34;5054911;28;20036;-38
2023/03/05 02:54:41;;;;;;;20.30;11.00;;;;;;;4.58;85.36;101954.72;5054724;28;20028;-38
2023/03/05 02:57:06;;;;;;;22.25;10.90;;;;;;;4.58;84.91;101951.16;5053852;28;20032;-39
2023/03/05 02:59:32;;;;;;;20.10;11.00;;;;;;;4.54;85.21;101948.06;5054969;28;20056;-38
2023/03/05 03:01:57;;;;;;;18.38;10.38;;;;;;;4.52;85.66;101951.06;5054693;28;20037;-38
2023/03/05 03:04:22;;;;;;;18.77;10.85;;;;;;;4.55;85.27;101937.91;5054709;28;20551;-39
2023/03/05 03:06:48;;;;;;;19.52;10.82;;;;;;;4.48;85.33;101930.66;5054755;28;20075;-39
2023/03/05 03:09:13;;;;;;;21.38;11.30;;;;;;;4.49;85.23;101940.56;5054877;28;20120;-39
2023/03/05 03:11:38;;;;;;;21.70;10.63;;;;;;;4.49;85.72;101940.56;5054671;28;20025;-40
2023/03/05 03:14:03;;;;;;;18.73;10.30;;;;;;;4.47;86.11;101933.66;5054281;28;20119;-39
2023/03/05 03:16:29;;;;;;;17.90;10.07;;;;;;;4.44;85.96;101923.97;5054255;28;20134;-38
2023/03/05 03:18:54;;;;;;;19.90;10.40;;;;;;;4.44;86.37;101917.69;5054250;28;20033;-40
2023/03/05 03:21:22;;;;;;;20.27;10.43;;;;;;;4.37;86.57;101926.00;5050451;28;20036;-39
2023/03/05 03:23:47;;;;;;;18.75;10.52;;;;;;;4.37;86.51;101926.88;5054493;28;20024;-39
2023/03/05 03:26:13;;;;;;;18.50;10.55;;;;;;;4.35;85.88;101919.94;5054469;28;20033;-39
2023/03/05 03:28:38;;;;;;;18.65;10.63;;;;;;;4.34;86.73;101924.59;5054254;28;20392;-40
2023/03/05 03:31:03;;;;;;;20.95;10.38;;;;;;;4.33;86.77;101911.97;5054105;28;20044;-39
2023/03/05 03:33:30;;;;;;;19.80;10.50;;;;;;;4.29;86.61;101910.78;5054085;28;20029;-40
2023/03/05 03:35:55;;;;;;;19.67;10.60;;;;;;;4.26;86.78;101913.97;5054137;28;20029;-39
2023/03/05 03:38:20;;;;;;;18.95;10.10;;;;;;;4.28;87.14;101917.31;5054067;28;20473;-39
2023/03/05 03:40:45;;;;;;;19.45;10.55;;;;;;;4.29;87.43;101923.63;5036140;28;20123;-39
2023/03/05 03:43:11;;;;;;;18.95;10.55;;;;;;;4.28;86.90;101922.81;5054077;28;20492;-39
2023/03/05 03:45:41;;;;;;;18.48;10.70;;;;;;;4.29;88.12;101921.75;5053910;28;20033;-40
2023/03/05 03:48:06;;;;;;;20.83;10.80;;;;;;;4.25;87.45;101906.00;5054000;28;20067;-39
2023/03/05 03:50:31;;;;;;;19.65;11.10;;;;;;;4.27;88.10;101914.81;5053763;28;20067;-39
2023/03/05 03:52:57;;;;;;;22.23;11.18;;;;;;;4.28;88.31;101908.25;5053933;28;20029;-39
2023/03/05 03:55:22;;;;;;;22.05;11.75;;;;;;;4.27;87.86;101910.19;5053840;28;20480;-40
2023/03/05 03:57:47;;;;;;;20.10;11.95;;;;;;;4.24;87.33;101902.41;5053815;28;20048;-40
2023/03/05 04:00:13;;;;;;;21.17;11.77;;;;;;;4.25;87.74;101904.09;5053825;28;20048;-40
2023/03/05 04:02:38;;;;;;;19.23;11.73;;;;;;;4.24;87.99;101907.09;5053761;28;20047;-39
2023/03/05 04:05:04;;;;;;;20.40;11.40;;;;;;;4.24;87.74;101904.34;5053688;28;20032;-39
2023/03/05 04:07:29;;;;;;;22.95;11.77;;;;;;;4.22;88.05;101902.66;5053446;28;20036;-39
2023/03/05 04:09:55;;;;;;;19.25;11.15;;;;;;;4.22;87.86;101893.59;5053618;28;20104;-39
2023/03/05 04:12:20;;;;;;;20.40;11.00;;;;;;;4.16;88.13;101883.59;5053558;28;20032;-39
2023/03/05 04:14:47;;;;;;;19.80;11.15;;;;;;;4.20;87.80;101880.16;5062181;28;20048;-39
2023/03/05 04:17:13;;;;;;;20.90;11.70;;;;;;;4.18;87.68;101881.47;5056701;28;20037;-39
2023/03/05 04:19:40;;;;;;;18.27;11.10;;;;;;;4.18;88.45;101876.00;5048686;28;20036;-40
2023/03/05 04:22:14;;;;;;;18.77;11.00;;;;;;;4.11;88.41;101865.16;5052182;28;20461;-40
2023/03/05 04:24:39;;;;;;;21.10;11.50;;;;;;;4.16;88.80;101875.38;5052220;28;20029;-39
2023/03/05 04:27:05;;;;;;;21.40;11.40;;;;;;;4.14;88.72;101869.31;5052999;28;20071;-39
2023/03/05 04:29:31;;;;;;;22.05;11.55;;;;;;;4.12;88.71;101866.81;5053184;28;20083;-39
2023/03/05 04:31:56;;;;;;;19.75;10.98;;;;;;;4.10;88.41;101862.66;5053159;28;20056;-39
2023/03/05 04:34:22;;;;;;;19.65;11.13;;;;;;;4.08;89.04;101860.13;5053007;28;20035;-39
2023/03/05 04:36:47;;;;;;;20.70;11.50;;;;;;;4.07;88.46;101861.19;5053463;28;20083;-39
2023/03/05 04:39:12;;;;;;;22.58;11.57;;;;;;;4.07;88.44;101855.72;5052583;28;20017;-41
2023/03/05 04:41:38;;;;;;;22.08;11.55;;;;;;;4.06;88.67;101856.81;5052839;28;20358;-39
2023/03/05 04:44:03;;;;;;;19.17;11.38;;;;;;;4.09;88.95;101855.50;5052724;28;20488;-39
2023/03/05 04:46:29;;;;;;;20.38;11.40;;;;;;;4.08;88.27;101864.78;5052681;28;20037;-39
2023/03/05 04:48:55;;;;;;;20.70;11.20;;;;;;;4.05;88.40;101866.94;5052673;28;20021;-39
2023/03/05 04:51:21;;;;;;;20.27;11.18;;;;;;;3.99;88.85;101848.72;5052548;28;20029;-39
2023/03/05 04:53:46;;;;;;;21.75;11.98;;;;;;;4.05;88.79;101866.94;5052595;28;20029;-39
2023/03/05 04:56:11;;;;;;;20.42;11.57;;;;;;;4.02;88.91;101845.47;5052452;28;20032;-40
2023/03/05 04:58:37;;;;;;;22.80;11.73;;;;;;;4.04;89.36;101857.03;5052490;28;20033;-39
2023/03/05 05:01:05;;;;;;;22.80;11.88;;;;;;;4.05;89.13;101850.50;5052397;28;20147;-39
2023/03/05 05:03:30;;;;;;;21.00;11.88;;;;;;;4.12;89.36;101846.78;5052614;28;20043;-39
2023/03/05 05:05:58;;;;;;;21.83;12.55;;;;;;;3.95;88.84;101802.88;5052415;28;20435;-39
2023/03/05 05:08:24;;;;;;;23.55;12.40;;;;;;;4.17;88.42;101835.97;5052425;28;20028;-40
2023/03/05 05:10:57;;;;;;;22.83;12.30;;;;;;;4.18;88.49;101830.25;5052446;28;20457;-39
2023/03/05 05:13:24;;;;;;;24.90;12.77;;;;;;;4.16;88.66;101835.13;5052536;28;20021;-39
2023/03/05 05:15:49;;;;;;;21.17;12.43;;;;;;;4.15;89.33;101836.22;5064593;28;20481;-38
2023/03/05 05:18:15;;;;;;;21.05;12.23;;;;;;;4.13;89.05;101826.56;5069816;28;20024;-38
2023/03/05 05:20:40;;;;;;;21.92;12.52;;;;;;;4.11;88.84;101826.00;5069694;28;20021;-38
2023/03/05 05:23:05;;;;;;;18.73;12.10;;;;;;;4.13;88.63;101826.56;5072419;28;20051;-38
2023/03/05 05:25:30;;;;;;;19.58;11.73;;;;;;;4.11;88.65;101826.00;5072111;28;20111;-38
2023/03/05 05:27:56;;;;;;;21.38;11.75;;;;;;;4.08;88.29;101821.78;5072232;28;20081;-38
2023/03/05 05:30:21;;;;;;;22.02;12.07;;;;;;;4.07;88.96;101820.13;5053979;28;20025;-39
2023/03/05 05:32:46;;;;;;;19.08;11.68;;;;;;;4.04;88.83;101823.38;5072161;28;20033;-38
2023/03/05 05:35:11;;;;;;;21.40;12.43;;;;;;;4.02;88.56;101820.03;5065765;28;20024;-39
2023/03/05 05:37:37;;;;;;;19.85;12.10;;;;;;;4.01;89.25;101824.69;5033779;28;20125;-39
2023/03/05 05:40:04;;;;;;;22.27;11.95;;;;;;;4.00;88.92;101813.94;5051986;28;20374;-40
2023/03/05 05:42:30;;;;;;;20.30;12.35;;;;;;;3.99;89.54;101823.22;5051935;28;20754;-39
2023/03/05 05:44:55;;;;;;;22.05;12.55;;;;;;;3.98;89.31;101813.34;5051926;28;20506;-39
2023/03/05 05:47:20;;;;;;;24.25;12.30;;;;;;;3.97;89.66;101817.19;5051753;28;20030;-38
2023/03/05 05:49:45;;;;;;;22.52;12.55;;;;;;;3.93;89.53;101810.50;5051929;28;20028;-38
2023/03/05 05:52:12;;;;;;;23.20;13.80;;;;;;;3.98;90.14;101811.47;5051840;28;20021;-40
2023/03/05 05:54:37;;;;;;;23.48;13.45;;;;;;;3.97;90.87;101809.78;5051744;28;20049;-38
2023/03/05 05:57:03;;;;;;;24.90;15.10;;;;;;;3.94;90.29;101813.00;5051861;28;20126;-38
2023/03/05 05:59:28;;;;;;;22.75;14.07;;;;;;;3.96;90.96;101810.03;5052113;28;20083;-39
2023/03/05 06:01:53;;;;;;;22.15;13.90;;;;;;;3.95;91.56;101800.97;5051739;28;20489;-38
2023/03/05 06:04:19;;;;;;;26.25;16.52;;;;;;;3.96;91.23;101804.56;5051847;28;20449;-38
2023/03/05 06:06:44;;;;;;;24.42;15.13;;;;;;;3.95;91.99;101809.19;5051748;28;20044;-39
2023/03/05 06:09:10;;;;;;;24.83;14.77;;;;;;;3.95;92.12;101803.72;5051891;28;20032;-39
2023/03/05 06:11:36;;;;;;;22.90;14.60;;;;;;;3.94;92.23;101806.69;5051763;28;20029;-38
2023/03/05 06:14:02;;;;;;;23.55;14.20;;;;;;;3.93;92.76;101797.63;5051906;28;20028;-39
2023/03/05 06:16:28;;;;;;;23.40;14.68;;;;;;;3.93;92.69;101802.28;5047771;28;20060;-39
2023/03/05 06:18:54;;;;;;;23.00;15.55;;;;;;;3.89;93.64;101799.19;5051751;28;20543;-39
2023/03/05 06:21:20;;;;;;;23.17;14.85;;;;;;;3.99;95.09;101798.59;5051401;28;20025;-39
2023/03/05 06:23:46;;;;;;;24.70;15.93;;;;;;;4.04;94.50;101802.28;5051678;28;20071;-40
2023/03/05 06:26:14;;;;;;;24.60;15.02;;;;;;;4.08;94.21;101796.34;5051714;28;20036;-39
2023/03/05 06:28:40;;;;;;;22.70;15.30;;;;;;;4.07;94.83;101803.69;5051646;28;20029;-39
2023/03/05 06:31:08;;;;;;;22.40;14.75;;;;;;;4.06;94.89;101793.84;5051642;28;20029;-39
2023/03/05 06:33:34;;;;;;;23.45;14.40;;;;;;;4.02;94.54;101789.91;5054965;28;20025;-39
2023/03/05 06:36:04;;;;;;;24.27;14.60;;;;;;;4.00;94.69;101795.63;5055306;28;20449;-39
2023/03/05 06:38:30;;;;;;;25.42;14.52;;;;;;;3.97;95.35;101800.75;5055212;28;20047;-39
2023/03/05 06:41:00;;;;;;;23.73;14.75;;;;;;;3.93;95.62;101781.19;5055486;28;20024;-39
2023/03/05 06:43:25;;;;;;;24.42;15.65;;;;;;;4.11;95.81;101791.22;5037065;28;20186;-39
2023/03/05 06:46:05;;;;;;;21.80;14.55;;;;;;;4.08;96.07;101783.47;5055284;28;20112;-39
2023/03/05 06:48:31;;;;;;;22.05;14.82;;;;;;;4.10;95.72;101791.47;5055044;28;20067;-39
2023/03/05 06:50:56;;;;;;;24.65;15.32;;;;;;;4.04;95.87;101785.84;5054728;28;20381;-40
2023/03/05 06:53:23;;;;;;;24.73;15.00;;;;;;;4.10;96.05;101791.47;5054766;28;20037;-39
2023/03/05 06:55:48;;;;;;;24.45;15.98;;;;;;;4.09;96.36;101787.88;5054837;28;20070;-39
2023/03/05 06:58:14;;;;;;;24.83;15.90;;;;;;;4.05;95.97;101787.50;5054947;28;20444;-39
2023/03/05 07:00:39;;;;;;;25.63;15.95;;;;;;;4.02;96.78;101787.97;5054788;28;20045;-39
2023/03/05 07:03:04;;;;;;;23.63;16.17;;;;;;;4.00;96.60;101786.56;5054928;28;20412;-39
2023/03/05 07:05:30;;;;;;;25.77;15.73;;;;;;;3.98;96.30;101785.97;5054944;28;20025;-39
2023/03/05 07:07:55;;;;;;;25.17;16.63;;;;;;;3.94;96.99;101779.31;5054884;28;20420;-39
2023/03/05 07:10:20;;;;;;;28.52;17.00;;;;;;;3.94;97.28;101780.13;5054804;28;20060;-39
2023/03/05 07:12:46;;;;;;;22.85;16.35;;;;;;;3.97;97.33;101787.88;5049930;28;20028;-39
2023/03/05 07:15:11;;;;;;;25.00;16.33;;;;;;;3.97;97.28;101787.06;5054819;28;20049;-39
2023/03/05 07:17:36;;;;;;;26.55;16.90;;;;;;;4.00;97.94;101789.31;5054817;28;20027;-40
2023/03/05 07:20:03;;;;;;;25.27;16.33;;;;;;;4.05;97.54;101792.16;5054662;28;20116;-39
2023/03/05 07:22:28;;;;;;;23.42;15.20;;;;;;;4.07;96.84;101784.53;5054641;28;20029;-39
2023/03/05 07:24:54;;;;;;;24.75;16.40;;;;;;;4.09;96.79;101789.78;5054678;28;20045;-39
2023/03/05 07:27:19;;;;;;;23.95;15.82;;;;;;;4.10;97.02;101789.53;5054605;28;20036;-39
2023/03/05 07:29:44;;;;;;;23.55;15.07;;;;;;;4.15;97.69;101777.88;5054451;28;20473;-39
2023/03/05 07:32:09;;;;;;;23.73;15.45;;;;;;;4.20;97.84;101769.78;5054573;28;20393;-39
2023/03/05 07:34:37;;;;;;;23.90;15.52;;;;;;;4.22;97.65;101771.19;5054417;28;20032;-39
2023/03/05 07:37:02;;;;;;;24.90;15.30;;;;;;;4.27;97.95;101772.38;5054402;28;20029;-39
2023/03/05 07:39:27;;;;;;;24.90;14.95;;;;;;;4.29;97.74;101779.28;5054389;28;20021;-39
2023/03/05 07:41:53;;;;;;;21.90;15.32;;;;;;;4.31;97.81;101779.03;5054455;28;20029;-39
2023/03/05 07:44:19;;;;;;;23.08;15.48;;;;;;;4.32;97.75;101775.22;5053843;28;20550;-39
2023/03/05 07:46:44;;;;;;;24.27;16.33;;;;;;;4.32;98.72;101775.22;5054183;28;20036;-39
2023/03/05 07:49:10;;;;;;;24.10;15.18;;;;;;;4.35;98.35;101780.19;5049698;28;20630;-40
2023/03/05 07:51:35;;;;;;;22.90;15.77;;;;;;;4.40;98.33;101772.09;5054183;28;20032;-39
2023/03/05 07:54:01;;;;;;;22.30;15.07;;;;;;;4.41;98.32;101773.78;5054015;28;20480;-39
2023/03/05 07:56:33;;;;;;;23.08;15.18;;;;;;;4.40;98.01;101769.38;5054006;28;20484;-38
2023/03/05 07:59:01;;;;;;;24.73;15.90;;;;;;;4.44;98.42;101772.47;5054117;28;20108;-39
2023/03/05 08:01:27;;;;;;;20.50;14.65;;;;;;;4.46;97.05;101767.56;5053666;28;20128;-40
2023/03/05 08:03:52;;;;;;;23.05;16.00;;;;;;;4.50;97.67;101763.25;5054004;28;20035;-39
2023/03/05 08:06:18;;;;;;;25.40;16.63;;;;;;;4.49;97.71;101761.59;5050145;28;20022;-40
2023/03/05 08:08:43;;;;;;;23.38;14.93;;;;;;;4.52;96.94;101759.22;5067046;28;20032;-39
2023/03/05 08:11:11;;;;;;;25.88;16.20;;;;;;;4.52;96.88;101761.09;5072521;28;20415;-39
2023/03/05 08:13:38;;;;;;;23.13;15.25;;;;;;;4.41;96.55;101734.56;5071689;28;20033;-38
2023/03/05 08:16:10;;;;;;;22.75;14.75;;;;;;;4.53;96.65;101755.38;5072172;28;20033;-39
2023/03/05 08:18:36;;;;;;;23.50;14.40;;;;;;;4.66;97.08;101759.78;5071798;28;20524;-39
2023/03/05 08:21:02;;;;;;;23.15;14.95;;;;;;;4.74;96.55;101752.22;5072159;28;20119;-38
2023/03/05 08:23:27;;;;;;;22.95;14.40;;;;;;;4.81;97.02;101751.00;5072020;28;20043;-38
2023/03/05 08:25:53;;;;;;;20.30;13.10;;;;;;;4.92;96.10;101756.66;5071246;28;20076;-39
2023/03/05 08:28:19;;;;;;;21.05;13.38;;;;;;;4.95;95.40;101743.31;5070968;28;20541;-42
2023/03/05 08:30:45;;;;;;;22.42;13.70;;;;;;;5.03;95.63;101746.72;5070264;28;20040;-39
2023/03/05 08:33:11;;;;;;;21.50;13.52;;;;;;;5.09;94.68;101743.84;5070658;28;20032;-41
2023/03/05 08:35:36;;;;;;;21.80;13.95;;;;;;;5.14;94.42;101737.63;5068418;28;20036;-39
2023/03/05 08:38:02;;;;;;;20.50;13.88;;;;;;;5.19;94.76;101736.88;5050732;28;20036;-39
2023/03/05 08:40:28;;;;;;;19.73;13.13;;;;;;;5.21;94.18;101730.06;5049914;28;20037;-39
2023/03/05 08:42:53;;;;;;;20.10;12.95;;;;;;;5.23;93.69;101729.78;5050075;28;20037;-39
2023/03/05 08:45:18;;;;;;;22.02;12.25;;;;;;;5.27;92.92;101731.78;5050277;28;20136;-39
2023/03/05 08:47:44;;;;;;;22.50;12.95;;;;;;;5.29;93.01;101728.81;5049901;28;20029;-39
2023/03/05 08:50:09;;;;;;;21.23;13.00;;;;;;;5.28;93.07;101719.75;5050309;28;20025;-39
2023/03/05 08:52:35;;;;;;;20.83;12.30;;;;;;;5.36;92.54;101728.63;5050950;28;20056;-40
2023/03/05 08:55:00;;;;;;;20.90;12.60;;;;;;;5.40;92.08;101721.56;5050733;28;20453;-39
2023/03/05 08:57:25;;;;;;;19.27;12.70;;;;;;;5.41;92.51;101720.50;5051439;28;20385;-39
2023/03/05 08:59:51;;;;;;;20.25;12.70;;;;;;;5.43;92.74;101719.16;5051120;28;20082;-39
2023/03/05 09:02:16;;;;;;;19.00;12.32;;;;;;;5.46;92.54;101709.59;5060471;28;20025;-39
2023/03/05 09:04:41;;;;;;;18.95;11.80;;;;;;;5.54;91.98;101714.66;5041723;28;20032;-39
2023/03/05 09:07:07;;;;;;;20.92;12.35;;;;;;;5.56;91.93;101706.19;5060036;28;20032;-39
2023/03/05 09:09:33;;;;;;;18.88;11.50;;;;;;;5.56;91.33;101703.44;5061667;28;20025;-39
2023/03/05 09:11:59;;;;;;;18.00;11.57;;;;;;;5.62;90.90;101707.91;5041098;28;20043;-39
2023/03/05 09:14:27;;;;;;;18.50;11.43;;;;;;;5.75;92.24;101707.56;5058979;28;20033;-39
2023/03/05 09:16:52;;;;;;;18.50;10.60;;;;;;;5.81;89.56;101704.88;5050641;28;20067;-40
2023/03/05 09:19:18;;;;;;;16.92;10.25;;;;;;;5.97;89.44;101711.44;5050509;28;20024;-39
2023/03/05 09:21:43;;;;;;;19.33;10.70;;;;;;;6.13;88.29;101712.50;5050793;28;20036;-40
2023/03/05 09:24:08;;;;;;;20.08;10.80;;;;;;;6.14;87.68;101695.75;5051189;28;20651;-40
2023/03/05 09:26:34;;;;;;;16.83;10.38;;;;;;;6.16;85.94;101698.25;5051031;28;20544;-39
2023/03/05 09:28:59;;;;;;;17.92;10.48;;;;;;;6.18;86.38;101694.19;5050989;28;20024;-39
2023/03/05 09:31:24;;;;;;;17.80;10.27;;;;;;;6.17;86.86;101702.66;5031987;28;20380;-39
2023/03/05 09:33:50;;;;;;;20.77;10.70;;;;;;;6.21;90.54;101692.81;5051244;28;20057;-39
2023/03/05 09:36:19;;;;;;;18.05;9.95;;;;;;;6.17;87.03;101691.66;5051266;28;20068;-39
2023/03/05 09:38:44;;;;;;;16.38;10.30;;;;;;;6.16;87.59;101690.00;5051261;28;20453;-40
2023/03/05 09:41:19;;;;;;;16.50;10.23;;;;;;;6.15;87.82;101680.94;5051225;28;20033;-40
2023/03/05 09:43:58;;;;;;;17.48;10.02;;;;;;;6.16;86.49;101688.09;5051038;28;20040;-39
2023/03/05 09:47:01;;;;;;;14.88;9.93;;;;;;;6.20;85.57;101677.41;5051245;28;20028;-39
2023/03/05 09:49:52;;;;;;;16.23;10.20;;;;;;;6.09;85.69;101670.97;5050990;28;20468;-39
2023/03/05 09:52:22;;;;;;;15.18;10.13;;;;;;;6.17;85.75;101681.53;5050316;28;20480;-40
2023/03/05 09:54:53;;;;;;;16.17;10.00;;;;;;;6.23;85.64;101677.72;5032860;28;20438;-39
2023/03/05 09:57:22;;;;;;;15.13;10.10;;;;;;;6.33;85.50;101677.00;5051034;28;20151;-39
2023/03/05 09:59:58;;;;;;;15.57;10.23;;;;;;;6.42;84.14;101676.59;5050646;28;20093;-41
2023/03/05 10:02:29;;;;;;;15.13;10.05;;;;;;;6.52;83.99;101671.16;5050622;28;20036;-39
2023/03/05 10:05:21;;;;;;;15.73;10.00;;;;;;;6.56;81.95;101673.16;5050688;28;20477;-39
2023/03/05 10:07:58;;;;;;;14.73;9.70;;;;;;;6.58;82.20;101670.16;5054015;28;20056;-40
2023/03/05 10:10:33;;;;;;;17.23;10.13;;;;;;;6.65;81.26;101668.03;5054554;28;20037;-39
2023/03/05 10:13:11;;;;;;;15.80;9.80;;;;;;;6.74;80.68;101662.06;5054677;28;20029;-39
2023/03/05 10:15:50;;;;;;;14.48;9.68;;;;;;;6.70;80.39;101654.34;5054468;28;20044;-39
2023/03/05 10:18:40;;;;;;;15.05;9.63;;;;;;;6.84;80.76;101667.66;5054518;28;20066;-39
2023/03/05 10:21:14;;;;;;;14.57;9.63;;;;;;;6.84;79.56;101667.66;5054794;28;20090;-39
2023/03/05 10:24:28;;;;;;;15.40;9.38;;;;;;;6.84;79.73;101657.50;5054125;28;20029;-40
2023/03/05 10:27:18;;;;;;;12.50;8.90;;;;;;;6.83;78.93;101658.59;4973360;28;20030;-39
2023/03/05 10:30:00;;;;;;;17.13;9.52;;;;;;;6.83;78.48;101655.00;5054140;28;20024;-39
2023/03/05 10:32:32;;;;;;;12.77;8.95;;;;;;;6.80;78.39;101639.84;5036091;28;20029;-39
2023/03/05 10:35:34;;;;;;;14.25;9.50;;;;;;;6.80;79.04;101645.34;5054001;28;20025;-40
2023/03/05 10:38:17;;;;;;;15.75;9.60;;;;;;;6.75;79.39;101644.47;5054422;28;20082;-39
2023/03/05 10:40:51;;;;;;;13.18;9.32;;;;;;;6.70;79.23;101637.84;5053987;28;20425;-39
2023/03/05 10:43:54;;;;;;;14.25;9.35;;;;;;;6.71;79.53;101636.72;5054019;28;20112;-39
2023/03/05 10:46:25;;;;;;;15.40;9.57;;;;;;;6.61;79.07;101633.06;5053728;28;20029;-39
2023/03/05 10:49:21;;;;;;;14.45;9.60;;;;;;;6.67;79.36;101630.09;5053569;28;20056;-39
2023/03/05 10:51:55;;;;;;;14.43;9.60;;;;;;;6.65;78.65;101624.03;5053652;28;20135;-40
2023/03/05 10:54:29;;;;;;;14.88;9.73;;;;;;;6.74;79.61;101627.16;5053781;28;20029;-39
2023/03/05 10:57:25;;;;;;;16.48;9.70;;;;;;;6.81;80.87;101626.91;5053394;28;20108;-39
2023/03/05 11:00:06;;;;;;;14.55;9.73;;;;;;;6.84;81.74;101632.75;5036426;28;20189;-40
2023/03/05 11:02:33;;;;;;;16.25;9.77;;;;;;;6.90;80.72;101630.84;5053581;28;20040;-39
2023/03/05 11:04:59;;;;;;;14.05;9.75;;;;;;;6.94;80.84;101617.41;5053656;28;20112;-39
2023/03/05 11:07:24;;;;;;;15.02;9.93;;;;;;;6.93;81.23;101616.56;5053207;28;20021;-39
2023/03/05 11:09:58;;;;;;;14.95;10.48;;;;;;;6.94;81.88;101609.16;5053315;28;20067;-39
2023/03/05 11:12:26;;;;;;;14.25;9.80;;;;;;;6.93;81.30;101610.25;5053424;28;20051;-39
2023/03/05 11:15:04;;;;;;;18.88;10.80;;;;;;;7.04;82.82;101609.22;5053226;28;20155;-40
2023/03/05 11:17:37;;;;;;;18.00;10.50;;;;;;;7.22;83.07;101605.22;5052358;28;20029;-38
2023/03/05 11:20:30;;;;;;;16.45;11.00;;;;;;;7.36;84.70;101599.28;5052665;28;20052;-38